sensor_id;sensor_type;location;lat;lon;timestamp;P1;durP1;ratioP1;P2;durP2;ratioP2
32393;SDS011;18853;45.426;9.206;2022-11-15T00:00:17;19.50;;;14.80;;
32393;SDS011;18853;45.426;9.206;2022-11-15T00:02:42;17.85;;;14.20;;
32393;SDS011;18853;45.426;9.206;2022-11-15T00:05:08;18.67;;;14.90;;
32393;SDS011;18853;45.426;9.206;2022-11-15T00:07:34;21.50;;;15.45;;
32393;SDS011;18853;45.426;9.206;2022-11-15T00:09:59;20.13;;;15.23;;
32393;SDS011;18853;45.426;9.206;2022-11-15T00:12:26;18.88;;;14.23;;
32393;SDS011;18853;45.426;9.206;2022-11-15T00:14:53;18.58;;;14.52;;
32393;SDS011;18853;45.426;9.206;2022-11-15T00:17:18;19.30;;;14.05;;
32393;SDS011;18853;45.426;9.206;2022-11-15T00:19:44;17.77;;;13.90;;
32393;SDS011;18853;45.426;9.206;2022-11-15T00:22:10;18.17;;;14.45;;
32393;SDS011;18853;45.426;9.206;2022-11-15T00:24:35;21.00;;;16.25;;
32393;SDS011;18853;45.426;9.206;2022-11-15T00:27:01;22.00;;;17.27;;
32393;SDS011;18853;45.426;9.206;2022-11-15T00:29:27;22.85;;;16.55;;
32393;SDS011;18853;45.426;9.206;2022-11-15T00:31:52;22.92;;;16.70;;
32393;SDS011;18853;45.426;9.206;2022-11-15T00:34:18;23.88;;;18.10;;
32393;SDS011;18853;45.426;9.206;2022-11-15T00:36:43;21.58;;;17.55;;
32393;SDS011;18853;45.426;9.206;2022-11-15T00:39:09;21.70;;;17.40;;
32393;SDS011;18853;45.426;9.206;2022-11-15T00:41:34;20.33;;;16.80;;
32393;SDS011;18853;45.426;9.206;2022-11-15T00:44:00;21.27;;;17.17;;
32393;SDS011;18853;45.426;9.206;2022-11-15T00:46:25;20.08;;;16.75;;
32393;SDS011;18853;45.426;9.206;2022-11-15T00:48:51;20.10;;;16.38;;
32393;SDS011;18853;45.426;9.206;2022-11-15T00:51:17;19.60;;;15.77;;
32393;SDS011;18853;45.426;9.206;2022-11-15T00:53:42;18.63;;;14.40;;
32393;SDS011;18853;45.426;9.206;2022-11-15T00:56:08;18.02;;;13.60;;
32393;SDS011;18853;45.426;9.206;2022-11-15T00:58:33;17.27;;;13.45;;
32393;SDS011;18853;45.426;9.206;2022-11-15T01:01:09;16.80;;;13.65;;
32393;SDS011;18853;45.426;9.206;2022-11-15T01:03:37;17.40;;;13.68;;
32393;SDS011;18853;45.426;9.206;2022-11-15T01:06:03;18.27;;;13.90;;
32393;SDS011;18853;45.426;9.206;2022-11-15T01:08:30;16.65;;;12.93;;
32393;SDS011;18853;45.426;9.206;2022-11-15T01:10:59;17.80;;;13.40;;
32393;SDS011;18853;45.426;9.206;2022-11-15T01:13:28;15.80;;;11.98;;
32393;SDS011;18853;45.426;9.206;2022-11-15T01:15:55;15.20;;;12.50;;
32393;SDS011;18853;45.426;9.206;2022-11-15T01:18:20;16.25;;;13.00;;
32393;SDS011;18853;45.426;9.206;2022-11-15T01:20:46;14.45;;;11.85;;
32393;SDS011;18853;45.426;9.206;2022-11-15T01:23:11;15.55;;;12.68;;
32393;SDS011;18853;45.426;9.206;2022-11-15T01:25:37;15.18;;;12.27;;
32393;SDS011;18853;45.426;9.206;2022-11-15T01:28:03;15.13;;;12.23;;
32393;SDS011;18853;45.426;9.206;2022-11-15T01:30:28;15.63;;;11.75;;
32393;SDS011;18853;45.426;9.206;2022-11-15T01:32:54;14.15;;;11.60;;
32393;SDS011;18853;45.426;9.206;2022-11-15T01:35:19;14.90;;;12.55;;
32393;SDS011;18853;45.426;9.206;2022-11-15T01:37:45;16.42;;;12.30;;
32393;SDS011;18853;45.426;9.206;2022-11-15T01:40:11;15.43;;;12.48;;
32393;SDS011;18853;45.426;9.206;2022-11-15T01:42:37;15.60;;;13.15;;
32393;SDS011;18853;45.426;9.206;2022-11-15T01:45:02;18.30;;;13.98;;
32393;SDS011;18853;45.426;9.206;2022-11-15T01:47:33;16.48;;;13.68;;
32393;SDS011;18853;45.426;9.206;2022-11-15T01:50:03;16.27;;;13.85;;
32393;SDS011;18853;45.426;9.206;2022-11-15T01:52:33;16.40;;;13.48;;
32393;SDS011;18853;45.426;9.206;2022-11-15T01:55:05;15.95;;;13.02;;
32393;SDS011;18853;45.426;9.206;2022-11-15T01:57:44;14.73;;;12.55;;
32393;SDS011;18853;45.426;9.206;2022-11-15T02:00:14;15.98;;;12.27;;
32393;SDS011;18853;45.426;9.206;2022-11-15T02:02:40;16.80;;;13.60;;
32393;SDS011;18853;45.426;9.206;2022-11-15T02:05:06;14.95;;;12.80;;
32393;SDS011;18853;45.426;9.206;2022-11-15T02:07:32;15.45;;;12.98;;
32393;SDS011;18853;45.426;9.206;2022-11-15T02:10:01;14.82;;;11.95;;
32393;SDS011;18853;45.426;9.206;2022-11-15T02:12:38;15.00;;;11.60;;
32393;SDS011;18853;45.426;9.206;2022-11-15T02:15:05;15.43;;;11.80;;
32393;SDS011;18853;45.426;9.206;2022-11-15T02:23:21;17.00;;;13.38;;
32393;SDS011;18853;45.426;9.206;2022-11-15T02:29:04;14.02;;;12.05;;
32393;SDS011;18853;45.426;9.206;2022-11-15T02:31:54;13.95;;;11.63;;
32393;SDS011;18853;45.426;9.206;2022-11-15T02:45:07;13.38;;;11.30;;
32393;SDS011;18853;45.426;9.206;2022-11-15T02:47:38;13.70;;;11.60;;
32393;SDS011;18853;45.426;9.206;2022-11-15T02:50:10;15.95;;;12.68;;
32393;SDS011;18853;45.426;9.206;2022-11-15T02:52:38;12.50;;;11.18;;
32393;SDS011;18853;45.426;9.206;2022-11-15T02:55:03;13.88;;;11.52;;
32393;SDS011;18853;45.426;9.206;2022-11-15T02:57:34;14.20;;;11.88;;
32393;SDS011;18853;45.426;9.206;2022-11-15T03:00:19;14.77;;;10.43;;
32393;SDS011;18853;45.426;9.206;2022-11-15T03:02:54;12.43;;;10.55;;
32393;SDS011;18853;45.426;9.206;2022-11-15T03:13:53;13.57;;;10.88;;
32393;SDS011;18853;45.426;9.206;2022-11-15T03:16:37;13.18;;;11.45;;
32393;SDS011;18853;45.426;9.206;2022-11-15T03:22:23;11.60;;;10.32;;
32393;SDS011;18853;45.426;9.206;2022-11-15T03:24:52;14.25;;;11.52;;
32393;SDS011;18853;45.426;9.206;2022-11-15T03:27:21;13.02;;;11.35;;
32393;SDS011;18853;45.426;9.206;2022-11-15T03:29:52;12.73;;;10.77;;
32393;SDS011;18853;45.426;9.206;2022-11-15T03:32:25;12.65;;;10.98;;
32393;SDS011;18853;45.426;9.206;2022-11-15T03:37:30;13.45;;;10.98;;
32393;SDS011;18853;45.426;9.206;2022-11-15T03:40:04;13.35;;;11.10;;
32393;SDS011;18853;45.426;9.206;2022-11-15T03:42:32;13.43;;;11.00;;
32393;SDS011;18853;45.426;9.206;2022-11-15T03:45:19;12.55;;;11.20;;
32393;SDS011;18853;45.426;9.206;2022-11-15T03:47:52;13.45;;;10.77;;
32393;SDS011;18853;45.426;9.206;2022-11-15T03:50:33;12.07;;;10.27;;
32393;SDS011;18853;45.426;9.206;2022-11-15T03:52:59;11.88;;;10.57;;
32393;SDS011;18853;45.426;9.206;2022-11-15T03:55:25;12.50;;;10.27;;
32393;SDS011;18853;45.426;9.206;2022-11-15T03:57:52;13.27;;;10.50;;
32393;SDS011;18853;45.426;9.206;2022-11-15T04:00:21;12.02;;;10.30;;
32393;SDS011;18853;45.426;9.206;2022-11-15T04:02:47;13.60;;;10.13;;
32393;SDS011;18853;45.426;9.206;2022-11-15T04:05:12;12.75;;;10.25;;
32393;SDS011;18853;45.426;9.206;2022-11-15T04:07:38;11.82;;;10.13;;
32393;SDS011;18853;45.426;9.206;2022-11-15T04:10:04;13.10;;;10.80;;
32393;SDS011;18853;45.426;9.206;2022-11-15T04:12:35;12.07;;;10.27;;
32393;SDS011;18853;45.426;9.206;2022-11-15T04:15:06;14.45;;;10.60;;
32393;SDS011;18853;45.426;9.206;2022-11-15T04:20:11;11.73;;;9.45;;
32393;SDS011;18853;45.426;9.206;2022-11-15T04:22:58;12.38;;;10.88;;
32393;SDS011;18853;45.426;9.206;2022-11-15T04:25:43;12.88;;;10.25;;
32393;SDS011;18853;45.426;9.206;2022-11-15T04:28:09;12.32;;;9.85;;
32393;SDS011;18853;45.426;9.206;2022-11-15T04:30:35;13.23;;;11.02;;
32393;SDS011;18853;45.426;9.206;2022-11-15T04:33:01;11.25;;;9.82;;
32393;SDS011;18853;45.426;9.206;2022-11-15T04:35:27;11.13;;;9.05;;
32393;SDS011;18853;45.426;9.206;2022-11-15T04:37:54;12.52;;;9.77;;
32393;SDS011;18853;45.426;9.206;2022-11-15T04:40:20;11.85;;;9.13;;
32393;SDS011;18853;45.426;9.206;2022-11-15T04:42:45;10.82;;;9.40;;
32393;SDS011;18853;45.426;9.206;2022-11-15T04:45:11;11.50;;;10.30;;
32393;SDS011;18853;45.426;9.206;2022-11-15T04:47:36;12.35;;;10.95;;
32393;SDS011;18853;45.426;9.206;2022-11-15T04:50:02;12.63;;;10.55;;
32393;SDS011;18853;45.426;9.206;2022-11-15T04:52:29;11.80;;;10.10;;
32393;SDS011;18853;45.426;9.206;2022-11-15T04:54:54;12.05;;;10.48;;
32393;SDS011;18853;45.426;9.206;2022-11-15T04:57:20;12.07;;;10.63;;
32393;SDS011;18853;45.426;9.206;2022-11-15T04:59:45;11.18;;;10.00;;
32393;SDS011;18853;45.426;9.206;2022-11-15T05:02:11;12.48;;;10.10;;
32393;SDS011;18853;45.426;9.206;2022-11-15T05:04:37;12.30;;;10.82;;
32393;SDS011;18853;45.426;9.206;2022-11-15T05:07:02;12.05;;;10.75;;
32393;SDS011;18853;45.426;9.206;2022-11-15T05:09:31;11.23;;;9.98;;
32393;SDS011;18853;45.426;9.206;2022-11-15T05:11:57;14.25;;;11.45;;
32393;SDS011;18853;45.426;9.206;2022-11-15T05:14:22;14.55;;;11.85;;
32393;SDS011;18853;45.426;9.206;2022-11-15T05:16:48;15.33;;;11.30;;
32393;SDS011;18853;45.426;9.206;2022-11-15T05:19:13;13.82;;;11.27;;
32393;SDS011;18853;45.426;9.206;2022-11-15T05:21:39;15.43;;;12.10;;
32393;SDS011;18853;45.426;9.206;2022-11-15T05:24:05;16.10;;;12.50;;
32393;SDS011;18853;45.426;9.206;2022-11-15T05:26:31;17.85;;;13.00;;
32393;SDS011;18853;45.426;9.206;2022-11-15T05:28:58;17.15;;;13.00;;
32393;SDS011;18853;45.426;9.206;2022-11-15T05:31:25;15.35;;;13.10;;
32393;SDS011;18853;45.426;9.206;2022-11-15T05:33:51;16.77;;;12.95;;
32393;SDS011;18853;45.426;9.206;2022-11-15T05:36:33;15.98;;;12.27;;
32393;SDS011;18853;45.426;9.206;2022-11-15T05:39:02;15.27;;;11.80;;
32393;SDS011;18853;45.426;9.206;2022-11-15T05:41:33;17.48;;;12.70;;
32393;SDS011;18853;45.426;9.206;2022-11-15T05:44:02;14.38;;;10.93;;
32393;SDS011;18853;45.426;9.206;2022-11-15T05:46:32;15.13;;;12.05;;
32393;SDS011;18853;45.426;9.206;2022-11-15T05:48:59;15.32;;;12.02;;
32393;SDS011;18853;45.426;9.206;2022-11-15T05:51:25;15.23;;;12.55;;
32393;SDS011;18853;45.426;9.206;2022-11-15T05:53:53;14.60;;;12.27;;
32393;SDS011;18853;45.426;9.206;2022-11-15T05:56:21;16.23;;;12.20;;
32393;SDS011;18853;45.426;9.206;2022-11-15T05:58:47;15.43;;;11.70;;
32393;SDS011;18853;45.426;9.206;2022-11-15T06:01:13;14.98;;;12.32;;
32393;SDS011;18853;45.426;9.206;2022-11-15T06:03:38;14.35;;;12.23;;
32393;SDS011;18853;45.426;9.206;2022-11-15T06:06:04;12.88;;;11.25;;
32393;SDS011;18853;45.426;9.206;2022-11-15T06:08:30;14.25;;;11.15;;
32393;SDS011;18853;45.426;9.206;2022-11-15T06:10:55;16.70;;;12.13;;
32393;SDS011;18853;45.426;9.206;2022-11-15T06:13:21;15.27;;;11.70;;
32393;SDS011;18853;45.426;9.206;2022-11-15T06:15:46;17.90;;;10.80;;
32393;SDS011;18853;45.426;9.206;2022-11-15T06:18:12;14.43;;;10.88;;
32393;SDS011;18853;45.426;9.206;2022-11-15T06:20:37;14.90;;;10.68;;
32393;SDS011;18853;45.426;9.206;2022-11-15T06:23:03;14.48;;;11.40;;
32393;SDS011;18853;45.426;9.206;2022-11-15T06:25:30;11.70;;;9.60;;
32393;SDS011;18853;45.426;9.206;2022-11-15T06:27:56;14.00;;;12.10;;
32393;SDS011;18853;45.426;9.206;2022-11-15T06:30:23;15.82;;;11.75;;
32393;SDS011;18853;45.426;9.206;2022-11-15T06:32:49;15.35;;;12.13;;
32393;SDS011;18853;45.426;9.206;2022-11-15T06:35:15;16.80;;;11.35;;
32393;SDS011;18853;45.426;9.206;2022-11-15T06:37:41;14.63;;;11.80;;
32393;SDS011;18853;45.426;9.206;2022-11-15T06:40:07;15.57;;;12.40;;
32393;SDS011;18853;45.426;9.206;2022-11-15T06:42:34;13.63;;;11.52;;
32393;SDS011;18853;45.426;9.206;2022-11-15T06:45:03;13.73;;;11.05;;
32393;SDS011;18853;45.426;9.206;2022-11-15T06:47:29;13.60;;;11.05;;
32393;SDS011;18853;45.426;9.206;2022-11-15T06:49:54;15.52;;;12.07;;
32393;SDS011;18853;45.426;9.206;2022-11-15T06:52:20;19.13;;;12.90;;
32393;SDS011;18853;45.426;9.206;2022-11-15T06:54:46;15.35;;;11.82;;
32393;SDS011;18853;45.426;9.206;2022-11-15T06:57:12;15.82;;;12.52;;
32393;SDS011;18853;45.426;9.206;2022-11-15T06:59:37;15.55;;;12.13;;
32393;SDS011;18853;45.426;9.206;2022-11-15T07:02:03;15.48;;;12.23;;
32393;SDS011;18853;45.426;9.206;2022-11-15T07:04:29;16.10;;;12.50;;
32393;SDS011;18853;45.426;9.206;2022-11-15T07:06:54;14.55;;;11.85;;
32393;SDS011;18853;45.426;9.206;2022-11-15T07:09:20;15.10;;;12.15;;
32393;SDS011;18853;45.426;9.206;2022-11-15T07:11:45;15.82;;;12.05;;
32393;SDS011;18853;45.426;9.206;2022-11-15T07:14:11;15.82;;;12.40;;
32393;SDS011;18853;45.426;9.206;2022-11-15T07:16:37;16.70;;;12.85;;
32393;SDS011;18853;45.426;9.206;2022-11-15T07:19:03;15.80;;;13.00;;
32393;SDS011;18853;45.426;9.206;2022-11-15T07:21:28;17.63;;;12.57;;
32393;SDS011;18853;45.426;9.206;2022-11-15T07:23:54;16.52;;;13.35;;
32393;SDS011;18853;45.426;9.206;2022-11-15T07:26:20;15.15;;;12.32;;
32393;SDS011;18853;45.426;9.206;2022-11-15T07:28:46;16.65;;;12.52;;
32393;SDS011;18853;45.426;9.206;2022-11-15T07:31:11;17.58;;;13.10;;
32393;SDS011;18853;45.426;9.206;2022-11-15T07:33:37;15.75;;;12.05;;
32393;SDS011;18853;45.426;9.206;2022-11-15T07:36:03;16.42;;;12.60;;
32393;SDS011;18853;45.426;9.206;2022-11-15T07:38:31;17.10;;;12.65;;
32393;SDS011;18853;45.426;9.206;2022-11-15T07:41:00;17.42;;;12.55;;
32393;SDS011;18853;45.426;9.206;2022-11-15T07:43:28;16.92;;;13.00;;
32393;SDS011;18853;45.426;9.206;2022-11-15T07:45:54;18.05;;;13.07;;
32393;SDS011;18853;45.426;9.206;2022-11-15T07:48:20;16.58;;;13.18;;
32393;SDS011;18853;45.426;9.206;2022-11-15T07:50:46;18.17;;;13.95;;
32393;SDS011;18853;45.426;9.206;2022-11-15T07:53:11;17.88;;;13.20;;
32393;SDS011;18853;45.426;9.206;2022-11-15T07:55:37;17.98;;;13.10;;
32393;SDS011;18853;45.426;9.206;2022-11-15T07:58:06;18.88;;;13.95;;
32393;SDS011;18853;45.426;9.206;2022-11-15T08:00:33;17.00;;;13.13;;
32393;SDS011;18853;45.426;9.206;2022-11-15T08:05:33;17.02;;;12.68;;
32393;SDS011;18853;45.426;9.206;2022-11-15T08:07:59;17.45;;;12.77;;
32393;SDS011;18853;45.426;9.206;2022-11-15T08:10:25;16.60;;;12.63;;
32393;SDS011;18853;45.426;9.206;2022-11-15T08:13:01;18.58;;;13.85;;
32393;SDS011;18853;45.426;9.206;2022-11-15T08:15:32;18.83;;;13.50;;
32393;SDS011;18853;45.426;9.206;2022-11-15T08:18:00;17.75;;;13.20;;
32393;SDS011;18853;45.426;9.206;2022-11-15T08:20:28;16.80;;;12.80;;
32393;SDS011;18853;45.426;9.206;2022-11-15T08:22:55;21.20;;;13.40;;
32393;SDS011;18853;45.426;9.206;2022-11-15T08:25:24;20.38;;;12.90;;
32393;SDS011;18853;45.426;9.206;2022-11-15T08:27:53;18.10;;;13.55;;
32393;SDS011;18853;45.426;9.206;2022-11-15T08:30:19;19.33;;;13.60;;
32393;SDS011;18853;45.426;9.206;2022-11-15T08:32:45;18.13;;;13.13;;
32393;SDS011;18853;45.426;9.206;2022-11-15T08:35:12;19.23;;;13.25;;
32393;SDS011;18853;45.426;9.206;2022-11-15T08:37:37;18.95;;;13.25;;
32393;SDS011;18853;45.426;9.206;2022-11-15T08:40:03;15.45;;;12.80;;
32393;SDS011;18853;45.426;9.206;2022-11-15T08:42:30;19.25;;;13.95;;
32393;SDS011;18853;45.426;9.206;2022-11-15T08:44:55;19.50;;;13.75;;
32393;SDS011;18853;45.426;9.206;2022-11-15T08:47:21;17.55;;;14.00;;
32393;SDS011;18853;45.426;9.206;2022-11-15T08:49:47;21.10;;;14.23;;
32393;SDS011;18853;45.426;9.206;2022-11-15T08:52:13;17.83;;;14.60;;
32393;SDS011;18853;45.426;9.206;2022-11-15T08:54:42;18.25;;;14.43;;
32393;SDS011;18853;45.426;9.206;2022-11-15T08:57:11;18.98;;;14.82;;
32393;SDS011;18853;45.426;9.206;2022-11-15T08:59:37;25.05;;;14.68;;
32393;SDS011;18853;45.426;9.206;2022-11-15T09:02:02;19.27;;;15.07;;
32393;SDS011;18853;45.426;9.206;2022-11-15T09:04:29;17.45;;;14.70;;
32393;SDS011;18853;45.426;9.206;2022-11-15T09:06:54;19.00;;;15.30;;
32393;SDS011;18853;45.426;9.206;2022-11-15T09:09:20;17.83;;;14.15;;
32393;SDS011;18853;45.426;9.206;2022-11-15T09:11:46;18.60;;;14.88;;
32393;SDS011;18853;45.426;9.206;2022-11-15T09:14:12;19.45;;;14.73;;
32393;SDS011;18853;45.426;9.206;2022-11-15T09:16:38;17.00;;;14.30;;
32393;SDS011;18853;45.426;9.206;2022-11-15T09:19:04;19.83;;;15.43;;
32393;SDS011;18853;45.426;9.206;2022-11-15T09:21:30;19.30;;;15.80;;
32393;SDS011;18853;45.426;9.206;2022-11-15T09:23:56;22.85;;;16.42;;
32393;SDS011;18853;45.426;9.206;2022-11-15T09:26:22;23.00;;;16.67;;
32393;SDS011;18853;45.426;9.206;2022-11-15T09:28:48;26.90;;;17.50;;
32393;SDS011;18853;45.426;9.206;2022-11-15T09:31:14;21.67;;;17.10;;
32393;SDS011;18853;45.426;9.206;2022-11-15T09:33:42;21.15;;;16.75;;
32393;SDS011;18853;45.426;9.206;2022-11-15T09:36:08;21.90;;;17.00;;
32393;SDS011;18853;45.426;9.206;2022-11-15T09:38:34;22.52;;;18.23;;
32393;SDS011;18853;45.426;9.206;2022-11-15T09:43:45;23.90;;;17.73;;
32393;SDS011;18853;45.426;9.206;2022-11-15T09:46:28;20.70;;;17.15;;
32393;SDS011;18853;45.426;9.206;2022-11-15T09:49:06;21.17;;;17.90;;
32393;SDS011;18853;45.426;9.206;2022-11-15T09:51:37;23.15;;;17.20;;
32393;SDS011;18853;45.426;9.206;2022-11-15T09:56:56;22.95;;;17.98;;
32393;SDS011;18853;45.426;9.206;2022-11-15T09:59:40;21.90;;;17.83;;
32393;SDS011;18853;45.426;9.206;2022-11-15T10:05:25;24.63;;;19.08;;
32393;SDS011;18853;45.426;9.206;2022-11-15T10:07:57;24.75;;;19.40;;
32393;SDS011;18853;45.426;9.206;2022-11-15T10:13:06;27.25;;;20.42;;
32393;SDS011;18853;45.426;9.206;2022-11-15T10:15:41;28.60;;;21.27;;
32393;SDS011;18853;45.426;9.206;2022-11-15T10:24:10;27.63;;;19.73;;
32393;SDS011;18853;45.426;9.206;2022-11-15T10:26:37;27.30;;;19.92;;
32393;SDS011;18853;45.426;9.206;2022-11-15T10:29:03;26.83;;;19.73;;
32393;SDS011;18853;45.426;9.206;2022-11-15T10:31:29;27.83;;;20.63;;
32393;SDS011;18853;45.426;9.206;2022-11-15T10:34:14;25.58;;;20.05;;
32393;SDS011;18853;45.426;9.206;2022-11-15T10:36:44;28.15;;;21.17;;
32393;SDS011;18853;45.426;9.206;2022-11-15T10:39:20;26.73;;;20.13;;
32393;SDS011;18853;45.426;9.206;2022-11-15T10:41:45;26.02;;;20.17;;
32393;SDS011;18853;45.426;9.206;2022-11-15T10:49:22;25.67;;;19.67;;
32393;SDS011;18853;45.426;9.206;2022-11-15T10:54:41;25.83;;;20.80;;
32393;SDS011;18853;45.426;9.206;2022-11-15T10:57:10;27.48;;;20.10;;
32393;SDS011;18853;45.426;9.206;2022-11-15T10:59:46;25.77;;;20.00;;
32393;SDS011;18853;45.426;9.206;2022-11-15T11:02:36;25.85;;;20.83;;
32393;SDS011;18853;45.426;9.206;2022-11-15T11:10:57;27.40;;;19.77;;
32393;SDS011;18853;45.426;9.206;2022-11-15T11:13:25;26.70;;;20.30;;
32393;SDS011;18853;45.426;9.206;2022-11-15T11:18:26;28.65;;;19.85;;
32393;SDS011;18853;45.426;9.206;2022-11-15T11:20:58;26.92;;;18.85;;
32393;SDS011;18853;45.426;9.206;2022-11-15T11:23:36;25.02;;;19.40;;
32393;SDS011;18853;45.426;9.206;2022-11-15T11:28:56;24.55;;;18.85;;
32393;SDS011;18853;45.426;9.206;2022-11-15T11:31:47;25.33;;;17.75;;
32393;SDS011;18853;45.426;9.206;2022-11-15T11:37:12;21.00;;;16.83;;
32393;SDS011;18853;45.426;9.206;2022-11-15T11:42:30;22.85;;;15.98;;
32393;SDS011;18853;45.426;9.206;2022-11-15T11:47:59;21.73;;;15.75;;
32393;SDS011;18853;45.426;9.206;2022-11-15T11:50:37;19.55;;;15.45;;
32393;SDS011;18853;45.426;9.206;2022-11-15T11:55:53;24.77;;;16.95;;
32393;SDS011;18853;45.426;9.206;2022-11-15T11:58:27;22.67;;;17.65;;
32393;SDS011;18853;45.426;9.206;2022-11-15T12:00:55;24.45;;;17.83;;
32393;SDS011;18853;45.426;9.206;2022-11-15T12:12:11;25.00;;;18.02;;
32393;SDS011;18853;45.426;9.206;2022-11-15T12:14:48;28.45;;;20.00;;
32393;SDS011;18853;45.426;9.206;2022-11-15T12:17:25;29.15;;;20.83;;
32393;SDS011;18853;45.426;9.206;2022-11-15T12:19:56;27.85;;;20.15;;
32393;SDS011;18853;45.426;9.206;2022-11-15T12:22:36;27.75;;;19.92;;
32393;SDS011;18853;45.426;9.206;2022-11-15T12:25:18;31.63;;;22.92;;
32393;SDS011;18853;45.426;9.206;2022-11-15T12:28:28;27.27;;;19.02;;
32393;SDS011;18853;45.426;9.206;2022-11-15T12:38:50;31.88;;;23.67;;
32393;SDS011;18853;45.426;9.206;2022-11-15T12:41:18;30.15;;;23.58;;
32393;SDS011;18853;45.426;9.206;2022-11-15T12:43:45;33.95;;;25.52;;
32393;SDS011;18853;45.426;9.206;2022-11-15T12:48:50;35.63;;;26.83;;
32393;SDS011;18853;45.426;9.206;2022-11-15T12:51:22;34.03;;;25.52;;
32393;SDS011;18853;45.426;9.206;2022-11-15T13:02:26;36.28;;;27.85;;
32393;SDS011;18853;45.426;9.206;2022-11-15T13:04:54;37.65;;;27.25;;
32393;SDS011;18853;45.426;9.206;2022-11-15T13:17:47;33.55;;;24.60;;
32393;SDS011;18853;45.426;9.206;2022-11-15T13:28:21;32.78;;;24.05;;
32393;SDS011;18853;45.426;9.206;2022-11-15T13:31:22;30.13;;;23.13;;
32393;SDS011;18853;45.426;9.206;2022-11-15T13:33:52;30.50;;;23.02;;
32393;SDS011;18853;45.426;9.206;2022-11-15T13:38:54;34.38;;;23.90;;
32393;SDS011;18853;45.426;9.206;2022-11-15T13:41:26;29.55;;;23.38;;
32393;SDS011;18853;45.426;9.206;2022-11-15T13:43:55;30.08;;;22.52;;
32393;SDS011;18853;45.426;9.206;2022-11-15T13:46:28;27.38;;;22.27;;
32393;SDS011;18853;45.426;9.206;2022-11-15T13:49:02;34.83;;;24.20;;
32393;SDS011;18853;45.426;9.206;2022-11-15T13:51:32;33.97;;;23.98;;
32393;SDS011;18853;45.426;9.206;2022-11-15T13:59:24;25.30;;;19.40;;
32393;SDS011;18853;45.426;9.206;2022-11-15T14:01:52;25.42;;;18.20;;
32393;SDS011;18853;45.426;9.206;2022-11-15T14:04:20;22.98;;;17.58;;
32393;SDS011;18853;45.426;9.206;2022-11-15T14:06:49;21.75;;;16.63;;
32393;SDS011;18853;45.426;9.206;2022-11-15T14:09:34;22.02;;;16.42;;
32393;SDS011;18853;45.426;9.206;2022-11-15T14:12:26;26.60;;;16.83;;
32393;SDS011;18853;45.426;9.206;2022-11-15T14:14:52;21.00;;;15.82;;
32393;SDS011;18853;45.426;9.206;2022-11-15T14:17:32;20.75;;;15.63;;
32393;SDS011;18853;45.426;9.206;2022-11-15T14:20:00;21.05;;;16.05;;
32393;SDS011;18853;45.426;9.206;2022-11-15T14:22:30;18.98;;;14.27;;
32393;SDS011;18853;45.426;9.206;2022-11-15T14:25:06;17.75;;;14.07;;
32393;SDS011;18853;45.426;9.206;2022-11-15T14:27:40;19.75;;;14.10;;
32393;SDS011;18853;45.426;9.206;2022-11-15T14:30:14;17.25;;;13.30;;
32393;SDS011;18853;45.426;9.206;2022-11-15T14:32:45;17.45;;;12.80;;
32393;SDS011;18853;45.426;9.206;2022-11-15T14:35:23;17.77;;;12.43;;
32393;SDS011;18853;45.426;9.206;2022-11-15T14:37:49;17.40;;;13.13;;
32393;SDS011;18853;45.426;9.206;2022-11-15T14:40:16;16.58;;;12.82;;
32393;SDS011;18853;45.426;9.206;2022-11-15T14:42:44;15.98;;;12.60;;
32393;SDS011;18853;45.426;9.206;2022-11-15T14:47:46;17.60;;;13.52;;
32393;SDS011;18853;45.426;9.206;2022-11-15T14:50:18;16.95;;;12.70;;
32393;SDS011;18853;45.426;9.206;2022-11-15T14:52:46;21.65;;;13.07;;
32393;SDS011;18853;45.426;9.206;2022-11-15T14:57:48;16.75;;;12.50;;
32393;SDS011;18853;45.426;9.206;2022-11-15T15:00:14;16.23;;;12.82;;
32393;SDS011;18853;45.426;9.206;2022-11-15T15:02:41;17.15;;;12.77;;
32393;SDS011;18853;45.426;9.206;2022-11-15T15:05:13;16.08;;;12.60;;
32393;SDS011;18853;45.426;9.206;2022-11-15T15:07:41;18.52;;;13.13;;
32393;SDS011;18853;45.426;9.206;2022-11-15T15:10:07;15.60;;;12.23;;
32393;SDS011;18853;45.426;9.206;2022-11-15T15:12:34;16.73;;;12.40;;
32393;SDS011;18853;45.426;9.206;2022-11-15T15:14:59;15.63;;;11.93;;
32393;SDS011;18853;45.426;9.206;2022-11-15T15:17:25;17.20;;;12.82;;
32393;SDS011;18853;45.426;9.206;2022-11-15T15:19:50;17.08;;;13.13;;
32393;SDS011;18853;45.426;9.206;2022-11-15T15:22:17;15.60;;;12.63;;
32393;SDS011;18853;45.426;9.206;2022-11-15T15:24:44;16.23;;;12.13;;
32393;SDS011;18853;45.426;9.206;2022-11-15T15:27:11;18.48;;;13.77;;
32393;SDS011;18853;45.426;9.206;2022-11-15T15:29:36;17.80;;;12.90;;
32393;SDS011;18853;45.426;9.206;2022-11-15T15:32:02;18.75;;;13.13;;
32393;SDS011;18853;45.426;9.206;2022-11-15T15:34:28;18.58;;;12.73;;
32393;SDS011;18853;45.426;9.206;2022-11-15T15:37:19;18.27;;;12.80;;
32393;SDS011;18853;45.426;9.206;2022-11-15T15:39:49;18.85;;;13.13;;
32393;SDS011;18853;45.426;9.206;2022-11-15T15:42:21;17.95;;;13.15;;
32393;SDS011;18853;45.426;9.206;2022-11-15T15:44:48;16.95;;;12.45;;
32393;SDS011;18853;45.426;9.206;2022-11-15T15:47:16;17.33;;;13.27;;
32393;SDS011;18853;45.426;9.206;2022-11-15T15:49:44;17.15;;;12.85;;
32393;SDS011;18853;45.426;9.206;2022-11-15T15:52:10;16.17;;;12.85;;
32393;SDS011;18853;45.426;9.206;2022-11-15T15:54:36;14.75;;;11.40;;
32393;SDS011;18853;45.426;9.206;2022-11-15T15:57:02;16.08;;;12.82;;
32393;SDS011;18853;45.426;9.206;2022-11-15T15:59:28;15.55;;;12.25;;
32393;SDS011;18853;45.426;9.206;2022-11-15T16:01:54;17.00;;;13.02;;
32393;SDS011;18853;45.426;9.206;2022-11-15T16:04:19;19.13;;;13.07;;
32393;SDS011;18853;45.426;9.206;2022-11-15T16:06:45;16.33;;;12.48;;
32393;SDS011;18853;45.426;9.206;2022-11-15T16:09:12;15.57;;;11.68;;
32393;SDS011;18853;45.426;9.206;2022-11-15T16:11:39;17.38;;;12.70;;
32393;SDS011;18853;45.426;9.206;2022-11-15T16:14:06;16.85;;;12.35;;
32393;SDS011;18853;45.426;9.206;2022-11-15T16:16:32;16.08;;;12.82;;
32393;SDS011;18853;45.426;9.206;2022-11-15T16:18:59;17.75;;;12.93;;
32393;SDS011;18853;45.426;9.206;2022-11-15T16:21:25;18.33;;;12.68;;
32393;SDS011;18853;45.426;9.206;2022-11-15T16:23:54;18.02;;;12.70;;
32393;SDS011;18853;45.426;9.206;2022-11-15T16:26:24;18.00;;;13.48;;
32393;SDS011;18853;45.426;9.206;2022-11-15T16:28:51;16.67;;;12.85;;
32393;SDS011;18853;45.426;9.206;2022-11-15T16:31:17;19.63;;;13.63;;
32393;SDS011;18853;45.426;9.206;2022-11-15T16:33:45;17.40;;;13.15;;
32393;SDS011;18853;45.426;9.206;2022-11-15T16:36:18;18.95;;;13.85;;
32393;SDS011;18853;45.426;9.206;2022-11-15T16:38:48;16.55;;;12.95;;
32393;SDS011;18853;45.426;9.206;2022-11-15T16:41:14;18.63;;;13.07;;
32393;SDS011;18853;45.426;9.206;2022-11-15T16:43:42;16.42;;;12.80;;
32393;SDS011;18853;45.426;9.206;2022-11-15T16:46:13;18.35;;;13.25;;
32393;SDS011;18853;45.426;9.206;2022-11-15T16:48:43;17.08;;;12.55;;
32393;SDS011;18853;45.426;9.206;2022-11-15T16:51:09;16.23;;;12.60;;
32393;SDS011;18853;45.426;9.206;2022-11-15T16:53:35;17.23;;;12.68;;
32393;SDS011;18853;45.426;9.206;2022-11-15T16:56:00;20.30;;;13.43;;